createdAt,value
2019-04-28T00:01:32.044Z,9.6
2019-04-28T00:16:44.974Z,9.7
2019-04-28T00:32:01.157Z,9.6
2019-04-28T00:47:14.096Z,9.6
2019-04-28T01:02:27.992Z,9.5
2019-04-28T01:17:35.537Z,9.4
2019-04-28T01:32:55.817Z,9.3
2019-04-28T01:48:10.164Z,9.2
2019-04-28T02:03:23.512Z,9.2
2019-04-28T02:18:25.103Z,9.1
2019-04-28T02:33:53.758Z,9
2019-04-28T02:49:04.777Z,8.8
2019-04-28T03:04:20.226Z,8.7
2019-04-28T03:19:34.061Z,8.6
2019-04-28T03:34:43.789Z,8.4
2019-04-28T03:50:00.065Z,8.3
2019-04-28T04:05:13.070Z,8.4
2019-04-28T04:20:26.394Z,8.7
2019-04-28T04:35:31.823Z,8.9
2019-04-28T04:50:53.878Z,9.1
2019-04-28T05:06:07.682Z,9.2
2019-04-28T05:21:21.659Z,9.4
2019-04-28T05:36:40.864Z,9.5
2019-04-28T05:51:50.455Z,9.4
2019-04-28T06:07:03.866Z,9.5
2019-04-28T06:22:17.837Z,9.4
2019-04-28T06:37:31.561Z,9.5
2019-04-28T06:52:40.140Z,9.6
2019-04-28T07:07:59.659Z,9.8
2019-04-28T07:23:13.779Z,9.7
2019-04-28T07:38:27.881Z,9.6
2019-04-28T07:53:30.266Z,9.9
2019-04-28T08:08:56.230Z,10.3
2019-04-28T08:24:10.552Z,10.4
2019-04-28T08:39:26.612Z,10.6
2019-04-28T08:54:39.537Z,11
2019-04-28T09:09:50.952Z,11.4
2019-04-28T09:25:08.982Z,11.4
2019-04-28T09:40:23.811Z,11.6
2019-04-28T09:55:38.741Z,12
2019-04-28T10:10:44.810Z,12.6
2019-04-28T10:26:09.239Z,13.6
2019-04-28T10:41:24.853Z,13.2
2019-04-28T10:56:40.432Z,14
2019-04-28T11:11:56.287Z,14
2019-04-28T11:27:09.990Z,13.1
2019-04-28T11:42:26.962Z,12.1
2019-04-28T11:57:42.089Z,12.5
2019-04-28T12:12:57.321Z,12.7
2019-04-28T12:28:04.514Z,12.7
2019-04-28T12:43:27.874Z,12.4
2019-04-28T12:58:42.917Z,12.4
2019-04-28T13:13:58.168Z,12.8
2019-04-28T13:28:59.916Z,13.6
2019-04-28T13:44:29.591Z,15
2019-04-28T13:59:45.909Z,14.4
2019-04-28T14:15:01.815Z,14.1
2019-04-28T14:30:17.696Z,14
2019-04-28T14:45:26.776Z,14.5
2019-04-28T15:00:49.892Z,15.2
2019-04-28T15:16:06.215Z,15
2019-04-28T15:31:22.813Z,15.9
2019-04-28T15:46:24.712Z,16.3
2019-04-28T16:01:54.850Z,16.2
2019-04-28T16:17:13.452Z,16.2
2019-04-28T16:32:30.502Z,15.6
2019-04-28T16:47:47.531Z,15.5
2019-04-28T17:02:53.063Z,15.3
2019-04-28T17:18:20.517Z,15.2
2019-04-28T17:33:36.747Z,15
2019-04-28T17:48:52.643Z,14
2019-04-28T18:04:08.199Z,13.3
2019-04-28T18:19:17.442Z,12.7
2019-04-28T18:34:38.643Z,12.3
2019-04-28T18:49:53.640Z,12
2019-04-28T19:05:10.490Z,11.7
2019-04-28T19:20:23.293Z,11.5
2019-04-28T19:35:37.934Z,11.2
2019-04-28T19:50:52.618Z,11
2019-04-28T20:06:07.034Z,10.9
2019-04-28T20:21:21.569Z,10.7
2019-04-28T20:36:33.012Z,10.6
2019-04-28T20:51:50.235Z,10.5
2019-04-28T21:07:04.518Z,10.4
2019-04-28T21:22:18.780Z,10.3
2019-04-28T21:37:24.054Z,11
2019-04-28T21:52:47.676Z,10.6
2019-04-28T22:06:08.035Z,11.6
2019-04-28T22:21:22.515Z,10.6
2019-04-28T22:36:36.886Z,10.2
2019-04-28T22:51:39.647Z,10
2019-04-28T23:07:05.222Z,9.9
2019-04-28T23:22:19.323Z,9.7
2019-04-28T23:37:33.451Z,9.6
2019-04-28T23:52:47.317Z,9.5
